Pine Grove, California
Current Conditions -  °F | °C
As of 5:35 PM on Friday 24 Oct 2014 (Local Time) from KPVF Reporting Station
Clear Clear  
Wind Chill: 68°   Ceiling: Unl
Heat Index: 68°   Visibility: 10mi
Dew Point: 43°   Wind: 6mph
Humidity: 40%   Direction: 230°SW
Pressure: 29.95"   Gusts: NA
Location:  38.41°N, 120.66°W
Report Text: KPVF 250035Z AUTO 23005KT 10SM CLR 20/06 A2995 RMK AO1
Loading
Personal Weather Stations






























Interactive Weather Map
Tropical Storm Tracking
New forecast layout! Learn more

10-Day Weather Forecast

Advertisements
Track Severe Weather on mobile